Check out our new BloomSky Weather System.

Active alerts


No alerts


Thunder radar  blitzortung!


Rain radar more information rain snow radar


Visit our other weather sites:

Template documentation
and downloads

And another site



Weather Underground History page Text

Daily Summary for April 19, 2017 Units:  English    Metric   Both
« Previous Day
Next Day »
Daily Weekly Monthly Yearly Custom
  High: Low: Average:
Temperature: 83.5 °F 65.7 °F 74 °F
Dew Point: 73.4 °F 65.1 °F 69.2 °F
Humidity: 100 % 60 % 86 %
Wind Speed: 18.0 mph 0.0 mph 3.2 mph
Wind Gust: 19.0 mph - -
Wind:- - SE
Pressure: 30.06 in 29.99 in -
Precipitation: 0.42 in    
Historical Graphs
 
 
Tabular Data for April 19, 2017
Time Temperature Dew Point Pressure Wind Wind Speed Wind Gust Humidity Rainfall Rate (Hourly)
00:02 67.8 °F 66.6 °F 30.02 in Calm     96 % 0.00 in
00:12 67.8 °F 66.6 °F 30.02 in Calm   1.0 mph 96 % 0.00 in
00:17 67.8 °F 66.9 °F 30.02 in Calm   1.0 mph 97 % 0.00 in
00:22 67.8 °F 66.9 °F 30.02 in Calm   1.0 mph 97 % 0.00 in
00:27 67.8 °F 66.9 °F 30.02 in Calm   1.0 mph 97 % 0.00 in
00:32 67.8 °F 66.9 °F 30.02 in Calm   1.0 mph 97 % 0.00 in
00:37 67.6 °F 66.7 °F 30.02 in Calm   1.0 mph 97 % 0.00 in
00:42 67.5 °F 66.6 °F 30.02 in Calm     97 % 0.00 in
00:47 67.5 °F 66.6 °F 30.02 in Calm     97 % 0.00 in
00:52 67.5 °F 66.6 °F 30.03 in Calm   1.0 mph 97 % 0.00 in
00:57 67.5 °F 66.6 °F 30.03 in Calm   1.0 mph 97 % 0.00 in
01:02 67.5 °F 66.6 °F 30.03 in Calm   1.0 mph 97 % 0.00 in
01:07 67.5 °F 66.6 °F 30.03 in Calm   1.0 mph 97 % 0.00 in
01:12 67.5 °F 66.6 °F 30.03 in Calm   1.0 mph 97 % 0.00 in
01:17 67.5 °F 66.6 °F 30.03 in Calm   1.0 mph 97 % 0.00 in
01:22 67.3 °F 66.4 °F 30.03 in Calm   1.0 mph 97 % 0.00 in
01:27 67.1 °F 66.2 °F 30.03 in Calm     97 % 0.00 in
01:32 67.3 °F 66.7 °F 30.03 in Calm   1.0 mph 98 % 0.00 in
01:37 67.1 °F 66.2 °F 30.03 in Calm   1.0 mph 97 % 0.00 in
01:42 67.1 °F 66.6 °F 30.03 in Calm   1.0 mph 98 % 0.00 in
01:47 67.1 °F 66.6 °F 30.02 in Calm   1.0 mph 98 % 0.00 in
01:52 66.9 °F 66.0 °F 30.02 in Calm     97 % 0.00 in
01:57 66.7 °F 65.8 °F 30.02 in Calm     97 % 0.00 in
02:03 66.6 °F 66.0 °F 30.02 in Calm     98 % 0.00 in
02:08 66.4 °F 65.8 °F 30.02 in Calm     98 % 0.00 in
02:13 66.4 °F 65.8 °F 30.02 in Calm     98 % 0.00 in
02:18 66.6 °F 66.0 °F 30.01 in Calm     98 % 0.00 in
02:23 66.7 °F 66.2 °F 30.01 in Calm     98 % 0.00 in
02:28 66.7 °F 66.2 °F 30.01 in Calm     98 % 0.00 in
02:33 66.6 °F 66.0 °F 30.01 in Calm     98 % 0.00 in
02:38 66.6 °F 66.0 °F 30.01 in Calm     98 % 0.00 in
02:43 66.6 °F 66.0 °F 30.01 in Calm     98 % 0.00 in
02:48 66.6 °F 66.0 °F 30.01 in Calm     98 % 0.00 in
02:53 66.4 °F 65.8 °F 30.01 in Calm     98 % 0.00 in
02:58 66.4 °F 65.8 °F 30.01 in Calm   1.0 mph 98 % 0.00 in
03:03 66.2 °F 65.7 °F 30.01 in Calm   1.0 mph 98 % 0.00 in
03:08 66.2 °F 65.7 °F 30.01 in Calm   1.0 mph 98 % 0.00 in
03:13 66.0 °F 65.5 °F 30.01 in Calm     98 % 0.00 in
03:18 66.0 °F 65.5 °F 30.01 in Calm     98 % 0.00 in
03:23 65.8 °F 65.3 °F 30.01 in Calm     98 % 0.00 in
03:28 65.8 °F 65.3 °F 30.01 in Calm     98 % 0.00 in
03:33 65.8 °F 65.3 °F 30.01 in Calm     98 % 0.00 in
03:38 65.8 °F 65.3 °F 30.01 in Calm     98 % 0.00 in
03:43 65.8 °F 65.3 °F 30.01 in Calm     98 % 0.00 in
03:48 65.7 °F 65.1 °F 30.01 in Calm     98 % 0.00 in
03:53 65.7 °F 65.1 °F 30.01 in Calm     98 % 0.00 in
03:58 65.7 °F 65.1 °F 30.01 in Calm     98 % 0.00 in
04:04 65.7 °F 65.1 °F 30.01 in Calm     98 % 0.00 in
04:09 65.7 °F 65.3 °F 30.01 in Calm     99 % 0.01 in
04:14 65.7 °F 65.3 °F 30.00 in Calm   1.0 mph 99 % 0.01 in
04:19 65.8 °F 65.5 °F 30.01 in Calm   1.0 mph 99 % 0.01 in
04:23 65.8 °F 65.5 °F 30.01 in Calm   1.0 mph 99 % 0.01 in
04:28 66.0 °F 65.7 °F 30.01 in Calm   1.0 mph 99 % 0.01 in
04:33 66.2 °F 65.8 °F 30.01 in Calm   1.0 mph 99 % 0.01 in
04:38 66.2 °F 65.8 °F 30.01 in Calm   1.0 mph 99 % 0.01 in
04:43 66.0 °F 65.7 °F 30.01 in Calm   1.0 mph 99 % 0.01 in
04:48 66.0 °F 65.7 °F 30.01 in Calm   1.0 mph 99 % 0.01 in
04:53 66.0 °F 65.7 °F 30.01 in Calm   1.0 mph 99 % 0.01 in
04:58 66.0 °F 65.7 °F 30.01 in Calm     99 % 0.01 in
05:03 65.8 °F 65.5 °F 30.01 in Calm     99 % 0.01 in
05:08 65.8 °F 65.5 °F 30.01 in Calm     99 % 0.00 in
05:13 65.8 °F 65.5 °F 30.01 in Calm     99 % 0.00 in
05:18 66.0 °F 65.7 °F 30.01 in Calm     99 % 0.00 in
05:23 66.2 °F 65.8 °F 30.01 in Calm   1.0 mph 99 % 0.00 in
05:29 66.2 °F 65.8 °F 30.01 in Calm   1.0 mph 99 % 0.00 in
05:34 66.4 °F 66.0 °F 30.02 in Calm   1.0 mph 99 % 0.00 in
05:39 66.6 °F 66.2 °F 30.02 in Calm   1.0 mph 99 % 0.00 in
05:44 66.6 °F 66.2 °F 30.02 in Calm   1.0 mph 99 % 0.00 in
05:54 66.6 °F 66.2 °F 30.01 in Calm   2.0 mph 99 % 0.00 in
05:59 66.4 °F 66.0 °F 30.01 in Calm   2.0 mph 99 % 0.00 in
06:04 66.4 °F 66.0 °F 30.01 in Calm   1.0 mph 99 % 0.00 in
06:08 66.4 °F 66.0 °F 30.01 in Calm   1.0 mph 99 % 0.00 in
06:13 66.4 °F 66.0 °F 30.02 in Calm   1.0 mph 99 % 0.00 in
06:19 66.4 °F 66.0 °F 30.02 in Calm   1.0 mph 99 % 0.00 in
06:24 66.4 °F 66.0 °F 30.01 in Calm   1.0 mph 99 % 0.00 in
06:29 66.4 °F 66.0 °F 30.01 in Calm     99 % 0.00 in
06:34 66.6 °F 66.2 °F 30.02 in Calm     99 % 0.00 in
06:39 66.6 °F 66.2 °F 30.02 in Calm   1.0 mph 99 % 0.00 in
06:44 66.6 °F 66.2 °F 30.02 in Calm   1.0 mph 99 % 0.00 in
06:49 66.6 °F 66.2 °F 30.02 in Calm   1.0 mph 99 % 0.00 in
06:54 66.6 °F 66.2 °F 30.03 in Calm   1.0 mph 99 % 0.00 in
06:59 66.6 °F 66.2 °F 30.03 in Calm   1.0 mph 99 % 0.00 in
07:04 66.6 °F 66.2 °F 30.03 in Calm   1.0 mph 99 % 0.00 in
07:09 66.6 °F 66.2 °F 30.03 in Calm   1.0 mph 99 % 0.00 in
07:14 66.6 °F 66.2 °F 30.03 in Calm   1.0 mph 99 % 0.00 in
07:19 66.6 °F 66.2 °F 30.03 in Calm   1.0 mph 99 % 0.00 in
07:24 66.7 °F 66.4 °F 30.03 in Calm   1.0 mph 99 % 0.00 in
07:29 66.9 °F 66.6 °F 30.03 in Calm   1.0 mph 99 % 0.00 in
07:34 67.1 °F 66.7 °F 30.03 in Calm   1.0 mph 99 % 0.00 in
07:39 67.5 °F 67.1 °F 30.04 in Calm   1.0 mph 99 % 0.00 in
07:44 67.6 °F 67.6 °F 30.04 in Calm   1.0 mph 100 % 0.00 in
07:49 67.8 °F 67.8 °F 30.04 in Calm   1.0 mph 100 % 0.00 in
07:54 68.2 °F 68.2 °F 30.04 in Calm   1.0 mph 100 % 0.00 in
07:59 68.4 °F 68.4 °F 30.04 in Calm   1.0 mph 100 % 0.00 in
08:04 68.4 °F 68.4 °F 30.04 in ENE 1.0 mph 2.0 mph 100 % 0.00 in
08:09 68.5 °F 68.2 °F 30.04 in Calm   2.0 mph 99 % 0.00 in
08:14 68.7 °F 68.7 °F 30.04 in Calm   2.0 mph 100 % 0.00 in
08:19 69.3 °F 69.3 °F 30.04 in Calm   2.0 mph 100 % 0.00 in
08:24 69.4 °F 69.4 °F 30.04 in Calm   2.0 mph 100 % 0.00 in
08:29 69.6 °F 69.6 °F 30.04 in Calm   2.0 mph 100 % 0.00 in
08:34 70.0 °F 70.0 °F 30.04 in Calm   2.0 mph 100 % 0.00 in
08:39 70.3 °F 70.3 °F 30.04 in Calm   2.0 mph 100 % 0.00 in
08:44 70.5 °F 70.5 °F 30.04 in Calm   2.0 mph 100 % 0.00 in
08:49 70.9 °F 70.5 °F 30.04 in Calm   2.0 mph 99 % 0.00 in
08:54 71.4 °F 71.4 °F 30.04 in Calm   3.0 mph 100 % 0.00 in
08:59 71.6 °F 71.2 °F 30.04 in Calm   3.0 mph 99 % 0.00 in
09:04 72.1 °F 72.1 °F 30.04 in Calm   3.0 mph 100 % 0.00 in
09:09 72.3 °F 72.0 °F 30.04 in East 1.0 mph 3.0 mph 99 % 0.00 in
09:14 72.7 °F 72.3 °F 30.05 in Calm   3.0 mph 99 % 0.00 in
09:19 72.9 °F 72.5 °F 30.05 in Calm   4.0 mph 99 % 0.00 in
09:24 73.2 °F 72.9 °F 30.05 in SW 1.0 mph 4.0 mph 99 % 0.00 in
09:29 73.6 °F 73.2 °F 30.05 in Calm   5.0 mph 99 % 0.00 in
09:35 73.8 °F 73.2 °F 30.05 in ESE 1.0 mph 5.0 mph 98 % 0.00 in
09:40 73.9 °F 73.4 °F 30.05 in North 1.0 mph 5.0 mph 98 % 0.00 in
09:44 74.1 °F 73.2 °F 30.05 in Calm   5.0 mph 97 % 0.00 in
09:49 74.3 °F 73.0 °F 30.06 in SSW 1.0 mph 4.0 mph 96 % 0.00 in
09:54 72.9 °F 69.8 °F 30.06 in SE 6.0 mph 6.0 mph 90 % 0.00 in
09:59 72.0 °F 69.8 °F 30.05 in ESE 2.0 mph 17.0 mph 93 % 0.14 in
10:05 71.6 °F 69.8 °F 30.06 in Calm   17.0 mph 94 % 0.35 in
10:09 71.6 °F 70.2 °F 30.05 in Calm   17.0 mph 95 % 0.41 in
10:14 71.8 °F 70.5 °F 30.06 in Calm   8.0 mph 96 % 0.41 in
10:19 72.1 °F 70.9 °F 30.06 in Calm   5.0 mph 96 % 0.41 in
10:25 72.7 °F 71.8 °F 30.06 in Calm   2.0 mph 97 % 0.41 in
10:30 73.2 °F 72.3 °F 30.06 in South 1.0 mph 2.0 mph 97 % 0.41 in
10:35 73.6 °F 72.3 °F 30.06 in SSE 1.0 mph 3.0 mph 96 % 0.41 in
10:40 74.1 °F 72.9 °F 30.05 in ESE 3.0 mph 5.0 mph 96 % 0.41 in
10:45 74.7 °F 73.2 °F 30.06 in SSW 2.0 mph 5.0 mph 95 % 0.41 in
10:50 75.2 °F 73.0 °F 30.06 in SE 3.0 mph 7.0 mph 93 % 0.41 in
10:55 75.6 °F 72.7 °F 30.06 in East 3.0 mph 7.0 mph 91 % 0.25 in
11:00 76.5 °F 73.0 °F 30.06 in South 4.0 mph 7.0 mph 89 % 0.06 in
11:05 77.2 °F 73.0 °F 30.06 in SE 4.0 mph 6.0 mph 87 % 0.00 in
11:10 77.5 °F 72.7 °F 30.06 in SSE 1.0 mph 8.0 mph 85 % 0.00 in
11:15 78.3 °F 72.7 °F 30.06 in ESE 7.0 mph 9.0 mph 83 % 0.00 in
11:20 78.6 °F 72.3 °F 30.06 in South 4.0 mph 9.0 mph 81 % 0.00 in
11:25 78.8 °F 71.4 °F 30.06 in South 5.0 mph 9.0 mph 78 % 0.00 in
11:30 79.0 °F 71.1 °F 30.06 in SSW 6.0 mph 10.0 mph 77 % 0.00 in
11:35 79.0 °F 71.1 °F 30.06 in SE 4.0 mph 12.0 mph 77 % 0.00 in
11:40 79.0 °F 72.0 °F 30.06 in SSW 8.0 mph 12.0 mph 79 % 0.00 in
11:45 79.7 °F 71.1 °F 30.06 in SSW 7.0 mph 12.0 mph 75 % 0.00 in
11:50 79.9 °F 70.5 °F 30.06 in SE 3.0 mph 9.0 mph 73 % 0.00 in
11:55 79.9 °F 71.2 °F 30.06 in SSW 18.0 mph 18.0 mph 75 % 0.00 in
12:00 79.9 °F 70.9 °F 30.06 in SSE 7.0 mph 18.0 mph 74 % 0.00 in
12:05 80.2 °F 70.9 °F 30.05 in SE 5.0 mph 18.0 mph 73 % 0.00 in
12:06 80.2 °F 71.6 °F 30.05 in ESE 8.0 mph 18.0 mph 75 % 0.00 in
12:11 80.4 °F 70.5 °F 30.05 in ESE 11.0 mph 16.0 mph 72 % 0.00 in
12:16 80.8 °F 71.2 °F 30.05 in SSE 9.0 mph 14.0 mph 73 % 0.00 in
12:21 81.0 °F 71.1 °F 30.05 in SE 8.0 mph 14.0 mph 72 % 0.00 in
12:26 80.6 °F 71.6 °F 30.04 in ENE 3.0 mph 12.0 mph 74 % 0.00 in
12:31 81.0 °F 72.0 °F 30.04 in SSE 4.0 mph 12.0 mph 74 % 0.00 in
12:36 81.1 °F 71.6 °F 30.04 in East 4.0 mph 10.0 mph 73 % 0.00 in
12:41 81.3 °F 71.4 °F 30.04 in ESE 1.0 mph 8.0 mph 72 % 0.00 in
12:46 81.1 °F 70.9 °F 30.04 in SE 4.0 mph 8.0 mph 71 % 0.00 in
12:51 80.4 °F 70.9 °F 30.04 in NE 5.0 mph 8.0 mph 73 % 0.00 in
12:56 79.3 °F 71.4 °F 30.04 in ESE 7.0 mph 13.0 mph 77 % 0.00 in
13:01 78.3 °F 72.3 °F 30.04 in SE 6.0 mph 13.0 mph 82 % 0.00 in
13:06 78.4 °F 72.5 °F 30.04 in ESE 5.0 mph 13.0 mph 82 % 0.00 in
13:11 79.0 °F 71.1 °F 30.04 in SE 7.0 mph 13.0 mph 77 % 0.00 in
13:16 80.1 °F 73.0 °F 30.03 in SSE 6.0 mph 13.0 mph 79 % 0.00 in
13:21 81.0 °F 72.0 °F 30.03 in ESE 4.0 mph 13.0 mph 74 % 0.00 in
13:22 81.0 °F 72.0 °F 30.03 in East 5.0 mph 13.0 mph 74 % 0.00 in
13:27 81.5 °F 72.0 °F 30.03 in South 9.0 mph 12.0 mph 73 % 0.00 in
13:32 81.5 °F 70.7 °F 30.03 in SE 10.0 mph 14.0 mph 70 % 0.00 in
13:37 81.5 °F 71.2 °F 30.03 in East 7.0 mph 14.0 mph 71 % 0.00 in
13:47 81.9 °F 70.7 °F 30.03 in ESE 8.0 mph 14.0 mph 69 % 0.00 in
13:52 81.9 °F 71.1 °F 30.03 in SE 8.0 mph 14.0 mph 70 % 0.00 in
13:57 82.2 °F 72.0 °F 30.02 in SE 3.0 mph 14.0 mph 71 % 0.00 in
14:02 82.0 °F 70.3 °F 30.02 in East 8.0 mph 12.0 mph 68 % 0.00 in
14:07 81.9 °F 71.6 °F 30.02 in ESE 3.0 mph 12.0 mph 71 % 0.00 in
14:12 81.7 °F 71.4 °F 30.02 in ESE 7.0 mph 12.0 mph 71 % 0.00 in
14:17 81.3 °F 71.1 °F 30.02 in South 4.0 mph 12.0 mph 71 % 0.00 in
14:22 80.8 °F 71.2 °F 30.02 in ESE 8.0 mph 15.0 mph 73 % 0.00 in
14:27 79.9 °F 70.0 °F 30.02 in SE 8.0 mph 19.0 mph 72 % 0.00 in
14:37 78.8 °F 71.1 °F 30.02 in ENE 5.0 mph 19.0 mph 77 % 0.00 in
14:42 78.1 °F 71.4 °F 30.03 in ESE 6.0 mph 19.0 mph 80 % 0.00 in
14:48 77.5 °F 72.0 °F 30.02 in SE 6.0 mph 15.0 mph 83 % 0.00 in
14:52 77.4 °F 72.1 °F 30.02 in ESE 3.0 mph 14.0 mph 84 % 0.00 in
14:58 78.6 °F 73.0 °F 30.02 in East 4.0 mph 14.0 mph 83 % 0.00 in
15:03 79.5 °F 72.5 °F 30.01 in SSE 6.0 mph 14.0 mph 79 % 0.00 in
15:08 79.7 °F 71.8 °F 30.01 in SE 11.0 mph 15.0 mph 77 % 0.00 in
15:13 80.4 °F 72.9 °F 30.01 in SSW 6.0 mph 15.0 mph 78 % 0.00 in
15:18 80.8 °F 72.5 °F 30.01 in East 7.0 mph 15.0 mph 76 % 0.00 in
15:23 80.8 °F 71.8 °F 30.01 in SE 8.0 mph 13.0 mph 74 % 0.00 in
15:28 81.0 °F 72.3 °F 30.00 in SE 6.0 mph 13.0 mph 75 % 0.00 in
15:33 81.3 °F 72.3 °F 30.01 in East 8.0 mph 13.0 mph 74 % 0.00 in
15:38 81.1 °F 72.1 °F 30.00 in ESE 9.0 mph 16.0 mph 74 % 0.00 in
15:43 81.1 °F 72.1 °F 30.00 in East 7.0 mph 16.0 mph 74 % 0.00 in
15:48 81.1 °F 72.1 °F 30.00 in ESE 7.0 mph 16.0 mph 74 % 0.00 in
15:53 81.1 °F 72.1 °F 30.00 in ESE 4.0 mph 15.0 mph 74 % 0.00 in
15:58 81.9 °F 73.2 °F 30.00 in SSW 7.0 mph 14.0 mph 75 % 0.00 in
16:03 82.0 °F 72.5 °F 29.99 in ESE 10.0 mph 14.0 mph 73 % 0.00 in
16:08 82.0 °F 72.1 °F 29.99 in ESE 6.0 mph 14.0 mph 72 % 0.00 in
16:13 82.0 °F 71.2 °F 29.99 in SE 11.0 mph 14.0 mph 70 % 0.00 in
16:18 82.0 °F 70.3 °F 29.99 in SE 9.0 mph 14.0 mph 68 % 0.00 in
16:23 81.9 °F 70.3 °F 29.99 in South 8.0 mph 16.0 mph 68 % 0.00 in
16:28 82.6 °F 69.1 °F 29.99 in ESE 10.0 mph 16.0 mph 64 % 0.00 in
16:33 82.6 °F 69.1 °F 29.99 in SSE 9.0 mph 16.0 mph 64 % 0.00 in
16:38 82.9 °F 69.1 °F 29.99 in ESE 6.0 mph 16.0 mph 63 % 0.00 in
16:43 83.5 °F 69.1 °F 29.99 in East 7.0 mph 15.0 mph 62 % 0.00 in
16:48 83.5 °F 69.1 °F 29.99 in ESE 6.0 mph 16.0 mph 62 % 0.00 in
16:53 83.5 °F 68.5 °F 29.99 in SE 11.0 mph 16.0 mph 61 % 0.00 in
16:58 83.5 °F 69.1 °F 29.99 in East 6.0 mph 19.0 mph 62 % 0.00 in
17:03 83.5 °F 68.5 °F 29.99 in SE 8.0 mph 19.0 mph 61 % 0.00 in
17:08 83.5 °F 68.5 °F 29.99 in SE 11.0 mph 19.0 mph 61 % 0.00 in
17:13 83.1 °F 67.8 °F 29.99 in SSE 11.0 mph 15.0 mph 60 % 0.00 in
17:18 83.1 °F 68.4 °F 29.99 in ESE 11.0 mph 17.0 mph 61 % 0.00 in
17:23 82.9 °F 68.2 °F 29.99 in SE 7.0 mph 19.0 mph 61 % 0.00 in
17:24 82.9 °F 67.6 °F 29.99 in SE 12.0 mph 19.0 mph 60 % 0.00 in
17:29 82.8 °F 68.0 °F 29.99 in SE 9.0 mph 19.0 mph 61 % 0.00 in
17:35 82.9 °F 68.2 °F 29.99 in SSE 6.0 mph 19.0 mph 61 % 0.00 in
17:40 82.9 °F 68.2 °F 29.99 in SE 3.0 mph 18.0 mph 61 % 0.00 in
17:45 83.1 °F 68.7 °F 29.99 in ESE 6.0 mph 18.0 mph 62 % 0.00 in
17:50 82.8 °F 68.4 °F 29.99 in ESE 11.0 mph 14.0 mph 62 % 0.00 in
17:55 82.6 °F 68.2 °F 29.99 in SE 11.0 mph 17.0 mph 62 % 0.00 in
18:00 82.4 °F 68.0 °F 29.99 in SE 12.0 mph 17.0 mph 62 % 0.00 in
18:05 82.2 °F 68.4 °F 29.99 in SSE 7.0 mph 17.0 mph 63 % 0.00 in
18:10 82.2 °F 68.9 °F 29.99 in South 5.0 mph 15.0 mph 64 % 0.00 in
18:15 82.0 °F 68.7 °F 30.00 in ESE 14.0 mph 14.0 mph 64 % 0.00 in
18:20 81.9 °F 68.5 °F 30.00 in SE 11.0 mph 15.0 mph 64 % 0.00 in
18:25 81.9 °F 68.5 °F 30.00 in SE 10.0 mph 15.0 mph 64 % 0.00 in
18:30 81.7 °F 68.4 °F 30.00 in SE 8.0 mph 15.0 mph 64 % 0.00 in
18:35 81.7 °F 68.7 °F 30.00 in SE 8.0 mph 15.0 mph 65 % 0.00 in
18:40 81.3 °F 68.4 °F 30.00 in SSE 11.0 mph 14.0 mph 65 % 0.00 in
18:45 81.1 °F 68.7 °F 30.00 in SE 10.0 mph 16.0 mph 66 % 0.00 in
18:50 81.0 °F 68.9 °F 30.00 in SE 5.0 mph 16.0 mph 67 % 0.00 in
18:55 81.0 °F 69.8 °F 30.01 in ESE 5.0 mph 16.0 mph 69 % 0.00 in
19:00 80.4 °F 70.2 °F 30.01 in SSE 3.0 mph 12.0 mph 71 % 0.00 in
19:05 80.2 °F 70.3 °F 30.01 in SE 4.0 mph 12.0 mph 72 % 0.00 in
19:10 79.9 °F 70.5 °F 30.00 in SE 2.0 mph 9.0 mph 73 % 0.00 in
19:15 79.5 °F 70.2 °F 30.01 in SSE 5.0 mph 16.0 mph 73 % 0.00 in
19:20 79.2 °F 70.2 °F 30.01 in East 5.0 mph 16.0 mph 74 % 0.00 in
19:25 78.6 °F 70.0 °F 30.01 in SSE 8.0 mph 16.0 mph 75 % 0.00 in
19:30 78.4 °F 69.8 °F 30.01 in SSE 3.0 mph 14.0 mph 75 % 0.00 in
19:35 78.3 °F 70.0 °F 30.00 in ESE 6.0 mph 14.0 mph 76 % 0.00 in
19:40 78.1 °F 70.3 °F 30.01 in SE 4.0 mph 12.0 mph 77 % 0.00 in
19:45 77.7 °F 70.0 °F 30.01 in ESE 6.0 mph 10.0 mph 77 % 0.00 in
19:46 77.7 °F 70.0 °F 30.01 in ENE 4.0 mph 10.0 mph 77 % 0.00 in
19:51 77.5 °F 70.2 °F 30.00 in ESE 5.0 mph 10.0 mph 78 % 0.00 in
19:56 77.2 °F 70.2 °F 30.00 in ESE 6.0 mph 13.0 mph 79 % 0.00 in
20:01 77.2 °F 70.2 °F 30.01 in ENE 6.0 mph 13.0 mph 79 % 0.00 in
20:06 76.8 °F 70.2 °F 30.01 in East 2.0 mph 13.0 mph 80 % 0.00 in
20:11 76.6 °F 70.3 °F 30.01 in East 5.0 mph 9.0 mph 81 % 0.00 in
20:16 76.5 °F 70.2 °F 30.01 in SE 3.0 mph 12.0 mph 81 % 0.00 in
20:21 76.3 °F 70.3 °F 30.01 in ESE 3.0 mph 12.0 mph 82 % 0.00 in
20:26 76.1 °F 70.2 °F 30.01 in SSE 5.0 mph 12.0 mph 82 % 0.00 in
20:31 75.9 °F 70.0 °F 30.01 in SE 4.0 mph 8.0 mph 82 % 0.00 in
20:36 75.9 °F 70.3 °F 30.01 in ESE 1.0 mph 8.0 mph 83 % 0.00 in
20:41 75.7 °F 70.2 °F 30.01 in ESE 2.0 mph 8.0 mph 83 % 0.00 in
20:46 75.7 °F 70.2 °F 30.02 in ESE 3.0 mph 8.0 mph 83 % 0.00 in
20:51 75.6 °F 70.3 °F 30.02 in ESE 2.0 mph 7.0 mph 84 % 0.00 in
20:56 75.4 °F 70.2 °F 30.02 in ENE 4.0 mph 7.0 mph 84 % 0.00 in
21:01 75.4 °F 70.2 °F 30.02 in SE 2.0 mph 7.0 mph 84 % 0.00 in
21:06 75.0 °F 69.8 °F 30.02 in SSW 1.0 mph 7.0 mph 84 % 0.00 in
21:11 75.0 °F 70.2 °F 30.03 in SE 4.0 mph 7.0 mph 85 % 0.00 in
21:16 74.8 °F 70.3 °F 30.03 in SE 3.0 mph 7.0 mph 86 % 0.00 in
21:21 74.8 °F 70.3 °F 30.03 in East 3.0 mph 7.0 mph 86 % 0.00 in
21:26 74.7 °F 70.5 °F 30.03 in SE 5.0 mph 9.0 mph 87 % 0.00 in
21:31 74.7 °F 70.5 °F 30.03 in ESE 1.0 mph 9.0 mph 87 % 0.00 in
21:36 74.5 °F 70.3 °F 30.04 in ESE 4.0 mph 9.0 mph 87 % 0.00 in
21:41 74.1 °F 70.3 °F 30.04 in ESE 4.0 mph 6.0 mph 88 % 0.00 in
21:46 74.1 °F 70.7 °F 30.04 in SE 4.0 mph 7.0 mph 89 % 0.00 in
21:51 74.1 °F 70.7 °F 30.04 in SSE 2.0 mph 7.0 mph 89 % 0.00 in
21:56 74.1 °F 70.7 °F 30.04 in South 4.0 mph 9.0 mph 89 % 0.00 in
22:01 74.1 °F 70.7 °F 30.04 in SE 6.0 mph 9.0 mph 89 % 0.00 in
22:06 73.9 °F 70.9 °F 30.04 in SSE 3.0 mph 9.0 mph 90 % 0.00 in
22:11 73.9 °F 70.9 °F 30.04 in SE 2.0 mph 9.0 mph 90 % 0.00 in
22:16 73.8 °F 70.7 °F 30.04 in SE 2.0 mph 9.0 mph 90 % 0.00 in
22:21 73.8 °F 70.7 °F 30.04 in SE 2.0 mph 6.0 mph 90 % 0.00 in
22:26 73.6 °F 70.7 °F 30.04 in East 1.0 mph 6.0 mph 91 % 0.00 in
22:31 73.6 °F 70.7 °F 30.04 in SE 3.0 mph 6.0 mph 91 % 0.00 in
22:36 73.6 °F 70.7 °F 30.04 in SE 3.0 mph 6.0 mph 91 % 0.00 in
22:41 73.6 °F 70.7 °F 30.04 in SE 3.0 mph 6.0 mph 91 % 0.00 in
22:46 73.4 °F 70.5 °F 30.04 in SE 1.0 mph 6.0 mph 91 % 0.00 in
22:51 73.4 °F 70.9 °F 30.04 in SE 2.0 mph 6.0 mph 92 % 0.00 in
22:56 73.2 °F 70.7 °F 30.04 in SE 1.0 mph 6.0 mph 92 % 0.00 in
23:01 73.2 °F 70.7 °F 30.04 in South 1.0 mph 5.0 mph 92 % 0.00 in
23:03 73.2 °F 70.7 °F 30.04 in SE 2.0 mph 5.0 mph 92 % 0.00 in
23:08 73.2 °F 70.7 °F 30.04 in ESE 1.0 mph 5.0 mph 92 % 0.00 in
23:13 73.2 °F 70.7 °F 30.05 in ESE 1.0 mph 5.0 mph 92 % 0.00 in
23:18 73.2 °F 70.7 °F 30.05 in East 4.0 mph 5.0 mph 92 % 0.00 in
23:23 73.2 °F 70.7 °F 30.05 in SSE 2.0 mph 6.0 mph 92 % 0.00 in
23:28 73.2 °F 70.7 °F 30.05 in SE 3.0 mph 7.0 mph 92 % 0.00 in
23:33 73.2 °F 70.7 °F 30.04 in South 4.0 mph 7.0 mph 92 % 0.00 in
23:38 73.2 °F 70.7 °F 30.04 in SE 2.0 mph 7.0 mph 92 % 0.00 in
23:43 73.2 °F 70.7 °F 30.04 in SSE 3.0 mph 6.0 mph 92 % 0.00 in
23:48 73.2 °F 70.7 °F 30.04 in SE 2.0 mph 6.0 mph 92 % 0.00 in
23:53 73.0 °F 70.5 °F 30.04 in South 4.0 mph 6.0 mph 92 % 0.00 in
23:58 73.0 °F 70.5 °F 30.04 in SSE 2.0 mph 6.0 mph 92 % 0.00 in
Spring, Texas: Villages of Bridgestone
Compliments of Weather Underground - 2.75 mb

Script developed by  Jim McMurry - jmcmurry@mwt.net Adapted for the template by  Wim van der Kuil - Leuven-Template.eu

You find our weather info also at:

UK Metoffice

WeatherCloud

Weather Underground

Mid-South Weather Network

AWEKAS

Citizen Weather Observer Program (CWOP)

HAMweather, WeatherForYou, PWS Weather

Equipment we use:

Weather-station
Davis Vantage Vue

Weather-program
Meteohub

Weather-server
Debian 7.9 x86 (Guest)

Provider
DreamHost

Davis Vantage Vue

Meteohub

Debian 7.9 x86 (Guest)

DreamHost